sensor_id;sensor_type;location;lat;lon;timestamp;temperature;humidity
36444;DHT22;24692;45.642;13.806;2024-01-15T00:01:46;7.90;99.90
36444;DHT22;24692;45.642;13.806;2024-01-15T00:04:12;7.70;99.90
36444;DHT22;24692;45.642;13.806;2024-01-15T00:06:37;7.70;99.90
36444;DHT22;24692;45.642;13.806;2024-01-15T00:09:03;7.80;99.90
36444;DHT22;24692;45.642;13.806;2024-01-15T00:11:29;7.80;99.90
36444;DHT22;24692;45.642;13.806;2024-01-15T00:13:54;7.80;99.90
36444;DHT22;24692;45.642;13.806;2024-01-15T00:16:20;7.90;99.90
36444;DHT22;24692;45.642;13.806;2024-01-15T00:18:46;7.80;99.90
36444;DHT22;24692;45.642;13.806;2024-01-15T00:21:11;7.80;99.90
36444;DHT22;24692;45.642;13.806;2024-01-15T00:23:39;7.80;99.90
36444;DHT22;24692;45.642;13.806;2024-01-15T00:26:07;7.70;99.90
36444;DHT22;24692;45.642;13.806;2024-01-15T00:28:33;7.50;99.90
36444;DHT22;24692;45.642;13.806;2024-01-15T00:30:58;7.60;99.90
36444;DHT22;24692;45.642;13.806;2024-01-15T00:33:24;7.60;99.90
36444;DHT22;24692;45.642;13.806;2024-01-15T00:35:50;7.50;99.90
36444;DHT22;24692;45.642;13.806;2024-01-15T00:38:15;7.50;99.90
36444;DHT22;24692;45.642;13.806;2024-01-15T00:40:41;7.40;99.90
36444;DHT22;24692;45.642;13.806;2024-01-15T00:43:07;7.40;99.90
36444;DHT22;24692;45.642;13.806;2024-01-15T00:45:33;7.50;99.90
36444;DHT22;24692;45.642;13.806;2024-01-15T00:47:58;7.60;99.90
36444;DHT22;24692;45.642;13.806;2024-01-15T00:50:26;7.60;99.90
36444;DHT22;24692;45.642;13.806;2024-01-15T00:52:52;7.70;99.90
36444;DHT22;24692;45.642;13.806;2024-01-15T00:55:17;7.70;99.90
36444;DHT22;24692;45.642;13.806;2024-01-15T00:57:43;7.60;99.90
36444;DHT22;24692;45.642;13.806;2024-01-15T01:00:09;7.60;99.90
36444;DHT22;24692;45.642;13.806;2024-01-15T01:02:35;7.70;99.90
36444;DHT22;24692;45.642;13.806;2024-01-15T01:05:00;7.70;99.90
36444;DHT22;24692;45.642;13.806;2024-01-15T01:07:26;7.70;99.90
36444;DHT22;24692;45.642;13.806;2024-01-15T01:09:52;7.80;99.90
36444;DHT22;24692;45.642;13.806;2024-01-15T01:12:17;7.80;99.90
36444;DHT22;24692;45.642;13.806;2024-01-15T01:14:43;7.90;99.90
36444;DHT22;24692;45.642;13.806;2024-01-15T01:17:09;7.90;99.90
36444;DHT22;24692;45.642;13.806;2024-01-15T01:19:34;7.90;99.90
36444;DHT22;24692;45.642;13.806;2024-01-15T01:22:00;7.90;99.90
36444;DHT22;24692;45.642;13.806;2024-01-15T01:24:26;7.80;99.90
36444;DHT22;24692;45.642;13.806;2024-01-15T01:26:52;7.70;99.90
36444;DHT22;24692;45.642;13.806;2024-01-15T01:29:18;7.60;99.90
36444;DHT22;24692;45.642;13.806;2024-01-15T01:31:44;7.70;99.90
36444;DHT22;24692;45.642;13.806;2024-01-15T01:34:10;7.80;99.90
36444;DHT22;24692;45.642;13.806;2024-01-15T01:36:36;7.80;99.90
36444;DHT22;24692;45.642;13.806;2024-01-15T01:39:01;7.70;99.90
36444;DHT22;24692;45.642;13.806;2024-01-15T01:41:27;7.70;99.90
36444;DHT22;24692;45.642;13.806;2024-01-15T01:43:53;7.80;99.90
36444;DHT22;24692;45.642;13.806;2024-01-15T01:46:19;7.90;99.90
36444;DHT22;24692;45.642;13.806;2024-01-15T01:48:44;7.90;99.90
36444;DHT22;24692;45.642;13.806;2024-01-15T01:51:11;7.90;99.90
36444;DHT22;24692;45.642;13.806;2024-01-15T01:53:38;7.90;99.90
36444;DHT22;24692;45.642;13.806;2024-01-15T01:56:04;7.90;99.90
36444;DHT22;24692;45.642;13.806;2024-01-15T01:58:31;7.90;99.90
36444;DHT22;24692;45.642;13.806;2024-01-15T02:00:58;7.90;99.90
36444;DHT22;24692;45.642;13.806;2024-01-15T02:03:25;7.90;99.90
36444;DHT22;24692;45.642;13.806;2024-01-15T02:05:52;7.90;99.90
36444;DHT22;24692;45.642;13.806;2024-01-15T02:08:19;7.90;99.90
36444;DHT22;24692;45.642;13.806;2024-01-15T02:10:45;7.90;99.90
36444;DHT22;24692;45.642;13.806;2024-01-15T02:13:11;7.90;99.90
36444;DHT22;24692;45.642;13.806;2024-01-15T02:15:36;8.00;99.90
36444;DHT22;24692;45.642;13.806;2024-01-15T02:18:03;8.00;99.90
36444;DHT22;24692;45.642;13.806;2024-01-15T02:20:29;8.00;99.90
36444;DHT22;24692;45.642;13.806;2024-01-15T02:23:22;7.90;99.90
36444;DHT22;24692;45.642;13.806;2024-01-15T02:25:48;7.90;99.90
36444;DHT22;24692;45.642;13.806;2024-01-15T02:28:15;7.90;99.90
36444;DHT22;24692;45.642;13.806;2024-01-15T02:30:42;7.80;99.90
36444;DHT22;24692;45.642;13.806;2024-01-15T02:33:10;7.80;99.90
36444;DHT22;24692;45.642;13.806;2024-01-15T02:35:36;7.70;99.90
36444;DHT22;24692;45.642;13.806;2024-01-15T02:38:05;7.70;99.90
36444;DHT22;24692;45.642;13.806;2024-01-15T02:40:31;7.80;99.90
36444;DHT22;24692;45.642;13.806;2024-01-15T02:42:57;7.70;99.90
36444;DHT22;24692;45.642;13.806;2024-01-15T02:45:23;7.80;99.90
36444;DHT22;24692;45.642;13.806;2024-01-15T02:47:49;7.80;99.90
36444;DHT22;24692;45.642;13.806;2024-01-15T02:50:15;7.70;99.90
36444;DHT22;24692;45.642;13.806;2024-01-15T02:52:44;7.70;99.90
36444;DHT22;24692;45.642;13.806;2024-01-15T02:55:10;7.70;99.90
36444;DHT22;24692;45.642;13.806;2024-01-15T02:57:35;7.80;99.90
36444;DHT22;24692;45.642;13.806;2024-01-15T03:00:01;7.90;99.90
36444;DHT22;24692;45.642;13.806;2024-01-15T03:02:29;8.00;99.90
36444;DHT22;24692;45.642;13.806;2024-01-15T03:04:57;7.90;99.90
36444;DHT22;24692;45.642;13.806;2024-01-15T03:07:22;7.90;99.90
36444;DHT22;24692;45.642;13.806;2024-01-15T03:09:48;7.90;99.90
36444;DHT22;24692;45.642;13.806;2024-01-15T03:12:14;7.90;99.90
36444;DHT22;24692;45.642;13.806;2024-01-15T03:14:39;7.90;99.90
36444;DHT22;24692;45.642;13.806;2024-01-15T03:17:05;7.80;99.90
36444;DHT22;24692;45.642;13.806;2024-01-15T03:19:34;7.80;99.90
36444;DHT22;24692;45.642;13.806;2024-01-15T03:21:59;7.90;99.90
36444;DHT22;24692;45.642;13.806;2024-01-15T03:24:26;7.90;99.90
36444;DHT22;24692;45.642;13.806;2024-01-15T03:26:51;7.90;99.90
36444;DHT22;24692;45.642;13.806;2024-01-15T03:29:17;8.00;99.90
36444;DHT22;24692;45.642;13.806;2024-01-15T03:31:43;8.00;99.90
36444;DHT22;24692;45.642;13.806;2024-01-15T03:34:08;8.00;99.90
36444;DHT22;24692;45.642;13.806;2024-01-15T03:36:34;8.00;99.90
36444;DHT22;24692;45.642;13.806;2024-01-15T03:39:00;8.00;99.90
36444;DHT22;24692;45.642;13.806;2024-01-15T03:41:25;8.10;99.90
36444;DHT22;24692;45.642;13.806;2024-01-15T03:43:51;8.10;99.90
36444;DHT22;24692;45.642;13.806;2024-01-15T03:46:17;8.10;99.90
36444;DHT22;24692;45.642;13.806;2024-01-15T03:48:42;8.10;99.90
36444;DHT22;24692;45.642;13.806;2024-01-15T03:51:08;8.10;99.90
36444;DHT22;24692;45.642;13.806;2024-01-15T03:53:34;8.10;99.90
36444;DHT22;24692;45.642;13.806;2024-01-15T03:55:59;8.10;99.90
36444;DHT22;24692;45.642;13.806;2024-01-15T03:58:25;8.10;99.90
36444;DHT22;24692;45.642;13.806;2024-01-15T04:00:50;8.10;99.90
36444;DHT22;24692;45.642;13.806;2024-01-15T04:03:16;8.10;99.90
36444;DHT22;24692;45.642;13.806;2024-01-15T04:05:42;8.00;99.90
36444;DHT22;24692;45.642;13.806;2024-01-15T04:08:08;8.10;99.90
36444;DHT22;24692;45.642;13.806;2024-01-15T04:10:33;8.20;99.90
36444;DHT22;24692;45.642;13.806;2024-01-15T04:12:59;8.10;99.90
36444;DHT22;24692;45.642;13.806;2024-01-15T04:15:27;8.20;99.90
36444;DHT22;24692;45.642;13.806;2024-01-15T04:17:52;8.20;99.90
36444;DHT22;24692;45.642;13.806;2024-01-15T04:20:18;8.20;99.90
36444;DHT22;24692;45.642;13.806;2024-01-15T04:22:44;8.10;99.90
36444;DHT22;24692;45.642;13.806;2024-01-15T04:25:10;8.10;99.90
36444;DHT22;24692;45.642;13.806;2024-01-15T04:27:35;8.10;99.90
36444;DHT22;24692;45.642;13.806;2024-01-15T04:30:01;8.10;99.90
36444;DHT22;24692;45.642;13.806;2024-01-15T04:32:27;8.10;99.90
36444;DHT22;24692;45.642;13.806;2024-01-15T04:34:52;8.10;99.90
36444;DHT22;24692;45.642;13.806;2024-01-15T04:37:18;8.10;99.90
36444;DHT22;24692;45.642;13.806;2024-01-15T04:39:43;8.00;99.90
36444;DHT22;24692;45.642;13.806;2024-01-15T04:42:09;8.00;99.90
36444;DHT22;24692;45.642;13.806;2024-01-15T04:44:35;8.10;99.90
36444;DHT22;24692;45.642;13.806;2024-01-15T04:47:00;8.10;99.90
36444;DHT22;24692;45.642;13.806;2024-01-15T04:49:26;8.00;99.90
36444;DHT22;24692;45.642;13.806;2024-01-15T04:51:53;8.00;99.90
36444;DHT22;24692;45.642;13.806;2024-01-15T04:54:18;8.10;99.90
36444;DHT22;24692;45.642;13.806;2024-01-15T04:56:44;8.20;99.90
36444;DHT22;24692;45.642;13.806;2024-01-15T04:59:10;8.20;99.90
36444;DHT22;24692;45.642;13.806;2024-01-15T05:01:36;8.10;99.90
36444;DHT22;24692;45.642;13.806;2024-01-15T05:04:02;8.10;99.90
36444;DHT22;24692;45.642;13.806;2024-01-15T05:06:27;8.10;99.90
36444;DHT22;24692;45.642;13.806;2024-01-15T05:08:53;8.10;99.90
36444;DHT22;24692;45.642;13.806;2024-01-15T05:11:19;8.10;99.90
36444;DHT22;24692;45.642;13.806;2024-01-15T05:13:45;8.10;99.90
36444;DHT22;24692;45.642;13.806;2024-01-15T05:16:10;8.10;99.90
36444;DHT22;24692;45.642;13.806;2024-01-15T05:18:36;8.10;99.90
36444;DHT22;24692;45.642;13.806;2024-01-15T05:21:05;8.10;99.90
36444;DHT22;24692;45.642;13.806;2024-01-15T05:23:34;8.20;99.90
36444;DHT22;24692;45.642;13.806;2024-01-15T05:26:00;8.20;99.90
36444;DHT22;24692;45.642;13.806;2024-01-15T05:28:25;8.20;99.90
36444;DHT22;24692;45.642;13.806;2024-01-15T05:30:51;8.20;99.90
36444;DHT22;24692;45.642;13.806;2024-01-15T05:33:17;8.30;99.90
36444;DHT22;24692;45.642;13.806;2024-01-15T05:35:43;8.20;99.90
36444;DHT22;24692;45.642;13.806;2024-01-15T05:38:09;8.20;99.90
36444;DHT22;24692;45.642;13.806;2024-01-15T05:40:34;8.10;99.90
36444;DHT22;24692;45.642;13.806;2024-01-15T05:43:00;8.20;99.90
36444;DHT22;24692;45.642;13.806;2024-01-15T05:45:26;8.20;99.90
36444;DHT22;24692;45.642;13.806;2024-01-15T05:47:52;8.10;99.90
36444;DHT22;24692;45.642;13.806;2024-01-15T05:50:18;8.20;99.90
36444;DHT22;24692;45.642;13.806;2024-01-15T05:52:44;8.20;99.90
36444;DHT22;24692;45.642;13.806;2024-01-15T05:55:09;8.30;99.90
36444;DHT22;24692;45.642;13.806;2024-01-15T05:57:36;8.20;99.90
36444;DHT22;24692;45.642;13.806;2024-01-15T06:00:03;8.10;99.90
36444;DHT22;24692;45.642;13.806;2024-01-15T06:02:29;8.10;99.90
36444;DHT22;24692;45.642;13.806;2024-01-15T06:04:54;8.00;99.90
36444;DHT22;24692;45.642;13.806;2024-01-15T06:07:20;8.00;99.90
36444;DHT22;24692;45.642;13.806;2024-01-15T06:09:45;8.00;99.90
36444;DHT22;24692;45.642;13.806;2024-01-15T06:12:11;8.10;99.90
36444;DHT22;24692;45.642;13.806;2024-01-15T06:14:37;8.20;99.90
36444;DHT22;24692;45.642;13.806;2024-01-15T06:17:03;8.20;99.90
36444;DHT22;24692;45.642;13.806;2024-01-15T06:19:29;8.20;99.90
36444;DHT22;24692;45.642;13.806;2024-01-15T06:21:55;8.20;99.90
36444;DHT22;24692;45.642;13.806;2024-01-15T06:24:20;8.30;99.90
36444;DHT22;24692;45.642;13.806;2024-01-15T06:26:46;8.40;99.90
36444;DHT22;24692;45.642;13.806;2024-01-15T06:29:12;8.90;99.90
36444;DHT22;24692;45.642;13.806;2024-01-15T06:31:38;8.90;99.90
36444;DHT22;24692;45.642;13.806;2024-01-15T06:34:04;9.80;99.90
36444;DHT22;24692;45.642;13.806;2024-01-15T06:36:29;11.00;99.90
36444;DHT22;24692;45.642;13.806;2024-01-15T06:38:55;12.10;99.90
36444;DHT22;24692;45.642;13.806;2024-01-15T06:41:21;12.80;99.90
36444;DHT22;24692;45.642;13.806;2024-01-15T06:43:47;13.10;99.90
36444;DHT22;24692;45.642;13.806;2024-01-15T06:46:22;14.20;99.90
36444;DHT22;24692;45.642;13.806;2024-01-15T06:48:48;14.40;99.90
36444;DHT22;24692;45.642;13.806;2024-01-15T06:51:15;14.70;99.90
36444;DHT22;24692;45.642;13.806;2024-01-15T06:53:41;14.10;99.90
36444;DHT22;24692;45.642;13.806;2024-01-15T06:56:06;14.10;99.90
36444;DHT22;24692;45.642;13.806;2024-01-15T06:58:32;15.40;99.90
36444;DHT22;24692;45.642;13.806;2024-01-15T07:00:58;15.90;99.90
36444;DHT22;24692;45.642;13.806;2024-01-15T07:03:24;16.30;99.90
36444;DHT22;24692;45.642;13.806;2024-01-15T07:05:49;15.50;99.90
36444;DHT22;24692;45.642;13.806;2024-01-15T07:08:15;14.90;99.90
36444;DHT22;24692;45.642;13.806;2024-01-15T07:10:41;14.50;99.90
36444;DHT22;24692;45.642;13.806;2024-01-15T07:13:06;14.60;99.90
36444;DHT22;24692;45.642;13.806;2024-01-15T07:15:32;15.50;99.90
36444;DHT22;24692;45.642;13.806;2024-01-15T07:17:58;15.90;99.90
36444;DHT22;24692;45.642;13.806;2024-01-15T07:20:23;15.20;99.90
36444;DHT22;24692;45.642;13.806;2024-01-15T07:22:50;15.30;99.90
36444;DHT22;24692;45.642;13.806;2024-01-15T07:25:16;15.20;99.90
36444;DHT22;24692;45.642;13.806;2024-01-15T07:27:42;14.70;99.90
36444;DHT22;24692;45.642;13.806;2024-01-15T07:30:11;14.50;99.90
36444;DHT22;24692;45.642;13.806;2024-01-15T07:32:37;14.30;99.90
36444;DHT22;24692;45.642;13.806;2024-01-15T07:35:03;13.50;99.90
36444;DHT22;24692;45.642;13.806;2024-01-15T07:37:29;13.50;99.90
36444;DHT22;24692;45.642;13.806;2024-01-15T07:39:55;12.80;99.90
36444;DHT22;24692;45.642;13.806;2024-01-15T07:42:21;11.60;99.90
36444;DHT22;24692;45.642;13.806;2024-01-15T07:44:46;10.70;99.90
36444;DHT22;24692;45.642;13.806;2024-01-15T07:47:12;10.20;99.90
36444;DHT22;24692;45.642;13.806;2024-01-15T07:49:38;9.90;99.90
36444;DHT22;24692;45.642;13.806;2024-01-15T07:52:04;9.50;99.90
36444;DHT22;24692;45.642;13.806;2024-01-15T07:54:31;9.40;99.90
36444;DHT22;24692;45.642;13.806;2024-01-15T07:56:59;9.20;99.90
36444;DHT22;24692;45.642;13.806;2024-01-15T07:59:25;9.10;99.90
36444;DHT22;24692;45.642;13.806;2024-01-15T08:01:52;9.10;99.90
36444;DHT22;24692;45.642;13.806;2024-01-15T08:04:18;9.10;99.90
36444;DHT22;24692;45.642;13.806;2024-01-15T08:06:44;9.10;99.90
36444;DHT22;24692;45.642;13.806;2024-01-15T08:09:10;9.10;99.90
36444;DHT22;24692;45.642;13.806;2024-01-15T08:11:39;9.20;99.90
36444;DHT22;24692;45.642;13.806;2024-01-15T08:14:04;9.20;99.90
36444;DHT22;24692;45.642;13.806;2024-01-15T08:16:30;9.30;99.90
36444;DHT22;24692;45.642;13.806;2024-01-15T08:18:56;9.40;99.90
36444;DHT22;24692;45.642;13.806;2024-01-15T08:21:22;9.40;99.90
36444;DHT22;24692;45.642;13.806;2024-01-15T08:23:47;9.50;99.90
36444;DHT22;24692;45.642;13.806;2024-01-15T08:26:13;9.50;99.90
36444;DHT22;24692;45.642;13.806;2024-01-15T08:28:39;9.40;99.90
36444;DHT22;24692;45.642;13.806;2024-01-15T08:31:04;9.40;99.90
36444;DHT22;24692;45.642;13.806;2024-01-15T08:33:30;9.40;99.90
36444;DHT22;24692;45.642;13.806;2024-01-15T08:35:56;9.40;99.90
36444;DHT22;24692;45.642;13.806;2024-01-15T08:38:22;9.50;99.90
36444;DHT22;24692;45.642;13.806;2024-01-15T08:40:49;9.40;99.90
36444;DHT22;24692;45.642;13.806;2024-01-15T08:43:15;9.50;99.90
36444;DHT22;24692;45.642;13.806;2024-01-15T08:45:41;9.50;99.90
36444;DHT22;24692;45.642;13.806;2024-01-15T08:48:06;9.50;99.90
36444;DHT22;24692;45.642;13.806;2024-01-15T08:50:32;9.40;99.90
36444;DHT22;24692;45.642;13.806;2024-01-15T08:52:58;9.40;99.90
36444;DHT22;24692;45.642;13.806;2024-01-15T08:55:24;9.40;99.90
36444;DHT22;24692;45.642;13.806;2024-01-15T08:57:50;9.40;99.90
36444;DHT22;24692;45.642;13.806;2024-01-15T09:00:17;9.40;99.90
36444;DHT22;24692;45.642;13.806;2024-01-15T09:02:43;9.40;99.90
36444;DHT22;24692;45.642;13.806;2024-01-15T09:05:09;9.40;99.90
36444;DHT22;24692;45.642;13.806;2024-01-15T09:07:35;9.40;99.90
36444;DHT22;24692;45.642;13.806;2024-01-15T09:10:00;9.30;99.90
36444;DHT22;24692;45.642;13.806;2024-01-15T09:12:27;9.10;99.90
36444;DHT22;24692;45.642;13.806;2024-01-15T09:14:53;8.80;99.90
36444;DHT22;24692;45.642;13.806;2024-01-15T09:17:19;8.70;99.90
36444;DHT22;24692;45.642;13.806;2024-01-15T09:19:45;8.70;99.90
36444;DHT22;24692;45.642;13.806;2024-01-15T09:22:12;8.60;99.90
36444;DHT22;24692;45.642;13.806;2024-01-15T09:24:41;8.70;99.90
36444;DHT22;24692;45.642;13.806;2024-01-15T09:27:07;8.70;99.90
36444;DHT22;24692;45.642;13.806;2024-01-15T09:29:33;8.90;99.90
36444;DHT22;24692;45.642;13.806;2024-01-15T09:31:58;9.00;99.90
36444;DHT22;24692;45.642;13.806;2024-01-15T09:34:24;9.10;99.90
36444;DHT22;24692;45.642;13.806;2024-01-15T09:36:50;9.10;99.90
36444;DHT22;24692;45.642;13.806;2024-01-15T09:39:16;8.90;99.90
36444;DHT22;24692;45.642;13.806;2024-01-15T09:41:43;9.00;99.90
36444;DHT22;24692;45.642;13.806;2024-01-15T09:44:10;8.80;99.90
36444;DHT22;24692;45.642;13.806;2024-01-15T09:46:37;9.00;99.90
36444;DHT22;24692;45.642;13.806;2024-01-15T09:49:03;9.20;99.90
36444;DHT22;24692;45.642;13.806;2024-01-15T09:51:33;9.20;99.90
36444;DHT22;24692;45.642;13.806;2024-01-15T09:53:59;9.10;99.90
36444;DHT22;24692;45.642;13.806;2024-01-15T09:56:25;9.20;99.90
36444;DHT22;24692;45.642;13.806;2024-01-15T09:58:50;9.40;99.90
36444;DHT22;24692;45.642;13.806;2024-01-15T10:01:23;9.50;99.90
36444;DHT22;24692;45.642;13.806;2024-01-15T10:03:50;9.50;99.90
36444;DHT22;24692;45.642;13.806;2024-01-15T10:06:18;9.50;99.90
36444;DHT22;24692;45.642;13.806;2024-01-15T10:08:51;9.50;99.90
36444;DHT22;24692;45.642;13.806;2024-01-15T10:11:17;9.50;99.90
36444;DHT22;24692;45.642;13.806;2024-01-15T10:13:48;9.50;99.90
36444;DHT22;24692;45.642;13.806;2024-01-15T10:16:19;9.40;99.90
36444;DHT22;24692;45.642;13.806;2024-01-15T10:18:44;9.50;99.90
36444;DHT22;24692;45.642;13.806;2024-01-15T10:21:10;9.50;99.90
36444;DHT22;24692;45.642;13.806;2024-01-15T10:23:36;9.40;99.90
36444;DHT22;24692;45.642;13.806;2024-01-15T10:26:02;9.30;99.90
36444;DHT22;24692;45.642;13.806;2024-01-15T10:28:30;9.40;99.90
36444;DHT22;24692;45.642;13.806;2024-01-15T10:30:58;9.40;99.90
36444;DHT22;24692;45.642;13.806;2024-01-15T10:33:27;9.40;99.90
36444;DHT22;24692;45.642;13.806;2024-01-15T10:35:57;9.40;99.90
36444;DHT22;24692;45.642;13.806;2024-01-15T10:38:24;9.30;99.90
36444;DHT22;24692;45.642;13.806;2024-01-15T10:40:54;9.20;99.90
36444;DHT22;24692;45.642;13.806;2024-01-15T10:43:20;9.30;99.90
36444;DHT22;24692;45.642;13.806;2024-01-15T10:45:50;9.20;99.90
36444;DHT22;24692;45.642;13.806;2024-01-15T10:48:18;9.20;99.90
36444;DHT22;24692;45.642;13.806;2024-01-15T10:50:45;9.20;99.90
36444;DHT22;24692;45.642;13.806;2024-01-15T10:53:16;9.20;99.90
36444;DHT22;24692;45.642;13.806;2024-01-15T10:55:43;9.20;99.90
36444;DHT22;24692;45.642;13.806;2024-01-15T10:58:09;9.20;99.90
36444;DHT22;24692;45.642;13.806;2024-01-15T11:00:39;9.20;99.90
36444;DHT22;24692;45.642;13.806;2024-01-15T11:03:07;9.30;99.90
36444;DHT22;24692;45.642;13.806;2024-01-15T11:05:43;9.30;99.90
36444;DHT22;24692;45.642;13.806;2024-01-15T11:08:10;9.30;99.90
36444;DHT22;24692;45.642;13.806;2024-01-15T11:10:50;9.30;99.90
36444;DHT22;24692;45.642;13.806;2024-01-15T11:13:22;9.30;99.90
36444;DHT22;24692;45.642;13.806;2024-01-15T11:16:04;9.20;99.90
36444;DHT22;24692;45.642;13.806;2024-01-15T11:18:32;9.20;99.90
36444;DHT22;24692;45.642;13.806;2024-01-15T11:21:26;8.90;99.90
36444;DHT22;24692;45.642;13.806;2024-01-15T11:23:53;8.90;99.90
36444;DHT22;24692;45.642;13.806;2024-01-15T11:26:31;8.80;99.90
36444;DHT22;24692;45.642;13.806;2024-01-15T11:28:59;8.80;99.90
36444;DHT22;24692;45.642;13.806;2024-01-15T11:33:54;9.00;99.90
36444;DHT22;24692;45.642;13.806;2024-01-15T11:36:21;9.00;99.90
36444;DHT22;24692;45.642;13.806;2024-01-15T11:38:47;8.90;99.90
36444;DHT22;24692;45.642;13.806;2024-01-15T11:41:16;8.80;99.90
36444;DHT22;24692;45.642;13.806;2024-01-15T11:43:41;8.70;99.90
36444;DHT22;24692;45.642;13.806;2024-01-15T11:46:11;8.60;99.90
36444;DHT22;24692;45.642;13.806;2024-01-15T11:48:44;8.70;99.90
36444;DHT22;24692;45.642;13.806;2024-01-15T11:51:13;8.60;99.90
36444;DHT22;24692;45.642;13.806;2024-01-15T11:53:44;8.60;99.90
36444;DHT22;24692;45.642;13.806;2024-01-15T11:56:22;8.70;99.90
36444;DHT22;24692;45.642;13.806;2024-01-15T11:58:48;8.70;99.90
36444;DHT22;24692;45.642;13.806;2024-01-15T12:01:16;8.70;99.90
36444;DHT22;24692;45.642;13.806;2024-01-15T12:03:42;8.80;99.90
36444;DHT22;24692;45.642;13.806;2024-01-15T12:06:09;8.80;99.90
36444;DHT22;24692;45.642;13.806;2024-01-15T12:08:36;8.70;99.90
36444;DHT22;24692;45.642;13.806;2024-01-15T12:11:07;8.80;99.90
36444;DHT22;24692;45.642;13.806;2024-01-15T12:13:35;8.60;99.90
36444;DHT22;24692;45.642;13.806;2024-01-15T12:16:01;8.60;99.90
36444;DHT22;24692;45.642;13.806;2024-01-15T12:18:29;8.60;99.90
36444;DHT22;24692;45.642;13.806;2024-01-15T12:20:55;8.50;99.90
36444;DHT22;24692;45.642;13.806;2024-01-15T12:23:20;8.50;99.90
36444;DHT22;24692;45.642;13.806;2024-01-15T12:25:46;8.60;99.90
36444;DHT22;24692;45.642;13.806;2024-01-15T12:28:12;8.60;99.90
36444;DHT22;24692;45.642;13.806;2024-01-15T12:30:39;8.70;99.90
36444;DHT22;24692;45.642;13.806;2024-01-15T12:33:05;8.80;99.90
36444;DHT22;24692;45.642;13.806;2024-01-15T12:35:31;9.00;99.90
36444;DHT22;24692;45.642;13.806;2024-01-15T12:37:57;9.20;99.90
36444;DHT22;24692;45.642;13.806;2024-01-15T12:40:23;9.00;99.90
36444;DHT22;24692;45.642;13.806;2024-01-15T12:42:49;9.00;99.90
36444;DHT22;24692;45.642;13.806;2024-01-15T12:45:15;8.70;99.90
36444;DHT22;24692;45.642;13.806;2024-01-15T12:47:42;8.70;99.90
36444;DHT22;24692;45.642;13.806;2024-01-15T12:50:10;8.50;99.90
36444;DHT22;24692;45.642;13.806;2024-01-15T12:52:37;8.50;99.90
36444;DHT22;24692;45.642;13.806;2024-01-15T12:55:06;8.60;99.90
36444;DHT22;24692;45.642;13.806;2024-01-15T12:57:32;8.60;99.90
36444;DHT22;24692;45.642;13.806;2024-01-15T12:59:58;8.70;99.90
36444;DHT22;24692;45.642;13.806;2024-01-15T13:02:24;8.80;99.90
36444;DHT22;24692;45.642;13.806;2024-01-15T13:04:50;8.90;99.90
36444;DHT22;24692;45.642;13.806;2024-01-15T13:07:15;9.00;99.90
36444;DHT22;24692;45.642;13.806;2024-01-15T13:09:41;9.20;99.90
36444;DHT22;24692;45.642;13.806;2024-01-15T13:12:07;9.40;99.90
36444;DHT22;24692;45.642;13.806;2024-01-15T13:14:33;9.50;99.90
36444;DHT22;24692;45.642;13.806;2024-01-15T13:16:59;9.50;99.90
36444;DHT22;24692;45.642;13.806;2024-01-15T13:19:25;9.50;99.90
36444;DHT22;24692;45.642;13.806;2024-01-15T13:21:51;9.50;99.90
36444;DHT22;24692;45.642;13.806;2024-01-15T13:24:17;9.40;99.90
36444;DHT22;24692;45.642;13.806;2024-01-15T13:26:43;9.20;99.90
36444;DHT22;24692;45.642;13.806;2024-01-15T13:29:09;9.20;99.90
36444;DHT22;24692;45.642;13.806;2024-01-15T13:31:34;9.20;99.90
36444;DHT22;24692;45.642;13.806;2024-01-15T13:34:00;9.20;99.90
36444;DHT22;24692;45.642;13.806;2024-01-15T13:36:26;9.20;99.90
36444;DHT22;24692;45.642;13.806;2024-01-15T13:38:53;9.20;99.90
36444;DHT22;24692;45.642;13.806;2024-01-15T13:41:22;9.10;99.90
36444;DHT22;24692;45.642;13.806;2024-01-15T13:43:53;9.10;99.90
36444;DHT22;24692;45.642;13.806;2024-01-15T13:46:20;9.10;99.90
36444;DHT22;24692;45.642;13.806;2024-01-15T13:48:47;9.10;99.90
36444;DHT22;24692;45.642;13.806;2024-01-15T13:51:13;9.20;99.90
36444;DHT22;24692;45.642;13.806;2024-01-15T13:53:39;9.10;99.90
36444;DHT22;24692;45.642;13.806;2024-01-15T13:56:06;9.10;99.90
36444;DHT22;24692;45.642;13.806;2024-01-15T13:58:32;9.10;99.90
36444;DHT22;24692;45.642;13.806;2024-01-15T14:01:01;9.10;99.90
36444;DHT22;24692;45.642;13.806;2024-01-15T14:03:28;9.00;99.90
36444;DHT22;24692;45.642;13.806;2024-01-15T14:05:55;8.80;99.90
36444;DHT22;24692;45.642;13.806;2024-01-15T14:08:20;8.70;99.90
36444;DHT22;24692;45.642;13.806;2024-01-15T14:10:46;8.80;99.90
36444;DHT22;24692;45.642;13.806;2024-01-15T14:13:12;8.80;99.90
36444;DHT22;24692;45.642;13.806;2024-01-15T14:15:37;8.80;99.90
36444;DHT22;24692;45.642;13.806;2024-01-15T14:18:03;8.80;99.90
36444;DHT22;24692;45.642;13.806;2024-01-15T14:20:29;8.80;99.90
36444;DHT22;24692;45.642;13.806;2024-01-15T14:22:55;8.90;99.90
36444;DHT22;24692;45.642;13.806;2024-01-15T14:25:21;8.90;99.90
36444;DHT22;24692;45.642;13.806;2024-01-15T14:27:47;9.00;99.90
36444;DHT22;24692;45.642;13.806;2024-01-15T14:30:13;8.80;99.90
36444;DHT22;24692;45.642;13.806;2024-01-15T14:32:40;8.70;99.90
36444;DHT22;24692;45.642;13.806;2024-01-15T14:35:06;8.60;99.90
36444;DHT22;24692;45.642;13.806;2024-01-15T14:37:33;8.30;99.90
36444;DHT22;24692;45.642;13.806;2024-01-15T14:39:59;8.30;99.90
36444;DHT22;24692;45.642;13.806;2024-01-15T14:42:25;8.30;99.90
36444;DHT22;24692;45.642;13.806;2024-01-15T14:44:51;8.20;99.90
36444;DHT22;24692;45.642;13.806;2024-01-15T14:47:16;8.10;99.90
36444;DHT22;24692;45.642;13.806;2024-01-15T14:49:42;8.10;99.90
36444;DHT22;24692;45.642;13.806;2024-01-15T14:52:08;8.20;99.90
36444;DHT22;24692;45.642;13.806;2024-01-15T14:54:33;8.30;99.90
36444;DHT22;24692;45.642;13.806;2024-01-15T14:57:00;8.30;99.90
36444;DHT22;24692;45.642;13.806;2024-01-15T14:59:26;8.30;99.90
36444;DHT22;24692;45.642;13.806;2024-01-15T15:01:54;8.30;99.90
36444;DHT22;24692;45.642;13.806;2024-01-15T15:04:20;8.20;99.90
36444;DHT22;24692;45.642;13.806;2024-01-15T15:06:45;8.10;99.90
36444;DHT22;24692;45.642;13.806;2024-01-15T15:09:11;8.20;99.90
36444;DHT22;24692;45.642;13.806;2024-01-15T15:11:37;8.20;99.90
36444;DHT22;24692;45.642;13.806;2024-01-15T15:14:03;8.20;99.90
36444;DHT22;24692;45.642;13.806;2024-01-15T15:16:32;8.30;99.90
36444;DHT22;24692;45.642;13.806;2024-01-15T15:18:58;8.50;99.90
36444;DHT22;24692;45.642;13.806;2024-01-15T15:21:23;8.50;99.90
36444;DHT22;24692;45.642;13.806;2024-01-15T15:23:49;8.50;99.90
36444;DHT22;24692;45.642;13.806;2024-01-15T15:26:15;8.40;99.90
36444;DHT22;24692;45.642;13.806;2024-01-15T15:28:40;8.40;99.90